Fort Morgan, CO

2:06 PM MDT on October 25, 2014 (GMT -0600)
Akron-Washington County | Change Station
CLOSE
Current Station
Airport
Location: Akron,
Elevation: 4662 ft
Nearby Weather Stations

Elev 4662 ft 40.17 °N, 103.21 °W | Updated 13 minutes ago

Clear
Clear
80 °F
Feels Like 80 °F
N
7
Wind Variable Wind from East

Today
High -- | Low -- °F
--% Chance of Precip.
Yesterday
High -- | Low -- °F
Precip. -- in
7:16 AM 6:01 PM
Waxing Crescent, 4% visible
Pressure 29.96 in
Visibility 10.0 miles
Clouds Clear
Dew Point 25 °F
Humidity 13%
Rainfall 0.00 in
Snow Depth Not available.
UV 4 out of 12
Pollen 2.90 out of 12
Air Quality Not available.
Flu Activity Sporadic
METAR KAKO 251953Z AUTO 08006KT 10SM CLR 27/M04 A3010 RMK AO2 SLP145 T02671039

More Conditions Fewer Conditions

Pressure 29.96 in
Visibility 10.0 miles
Clouds Clear
Dew Point 25 °F
Humidity 13%
Rainfall 0.00 in
Snow Depth Not available.
UV 4 out of 12
Pollen 2.90 out of 12
Air Quality Not available.
Flu Activity Sporadic
METAR KAKO 251953Z AUTO 08006KT 10SM CLR 27/M04 A3010 RMK AO2 SLP145 T02671039

More Conditions Fewer Conditions

10-Day Weather Forecast

Almanac

Astronomy

Oct. 25, 2014 Rise Set
Actual Time 7:16 AM MDT 6:01 PM MDT
Civil Twilight 6:49 AM MDT 6:28 PM MDT
Nautical Twilight 6:17 AM MDT 7:00 PM MDT
Astronomical Twilight 5:45 AM MDT 7:32 PM MDT
Moon 8:58 AM MDT 7:25 PM MDT
Length of Visible Light 11h 39m
Length of Day
10h 44m
Tomorrow will be 2m 26s shorter.
Waxing Crescent, 4% of the Moon is Illuminated
Today
Waxing Crescent
Oct 30
First Quarter
Nov 6
Full
Nov 14
Last Quarter
Nov 22
New

Today's Extremes

State Highs State Lows

Community

WunderPhotos

Upload Photos

1,764,976 photos uploaded!

Nearby

Snow Depth

Station Depth Elevation
Echo Lake 0 in 10600 ft
Jackwhacker Gulch 0 in 10960 ft
Loveland Basin 2 in 11400 ft
Rawah 2 in 9020 ft
Arapaho Ridge 0 in 10960 ft

Earthquake Activity

City Distance Mag. Time & Date
No recent earthquake activity has been reported nearby.
Minimum magnitude displayed is 2.5.

Coastal Water Temperatures

Place Temperature
No Stations Reporting

Nearby Weather Stations